Time;durP1;ratioP1;P1;durP2;ratioP2;P2;SDS_P1;SDS_P2;PMS_P1;PMS_P2;Temp;Humidity;BMP_temperature;BMP_pressure;BME280_temperature;BME280_humidity;BME280_pressure;Samples;Min_cycle;Max_cycle;Signal;HPM_P1;HPM_P2
2022/03/05 00:01:25;;;;;;;1.30;1.20;;;-0.10;98.00;;;;;;6245190;23;20461;-68
2022/03/05 00:03:51;;;;;;;2.70;2.40;;;0.00;98.00;;;;;;6245180;23;20488;-68
2022/03/05 00:06:18;;;;;;;2.67;2.23;;;-0.10;98.00;;;;;;6244789;23;20416;-68
2022/03/05 00:08:45;;;;;;;2.37;2.00;;;0.00;98.00;;;;;;6215341;23;20468;-68
2022/03/05 00:11:13;;;;;;;1.20;1.10;;;-0.10;98.00;;;;;;6245163;23;20405;-68
2022/03/05 00:13:41;;;;;;;3.40;2.27;;;-0.10;98.00;;;;;;6218166;23;20456;-68
2022/03/05 00:16:08;;;;;;;1.97;1.83;;;-0.10;98.00;;;;;;6245230;23;20405;-68
2022/03/05 00:18:35;;;;;;;2.53;2.33;;;0.10;98.00;;;;;;6245408;23;20405;-68
2022/03/05 00:21:03;;;;;;;1.60;1.50;;;0.20;98.00;;;;;;6245125;23;20433;-68
2022/03/05 00:23:30;;;;;;;2.40;1.63;;;0.20;98.00;;;;;;6245477;23;20401;-70
2022/03/05 00:25:58;;;;;;;2.27;1.60;;;0.00;98.00;;;;;;6245320;23;20406;-68
2022/03/05 00:28:25;;;;;;;2.00;1.90;;;0.10;98.00;;;;;;6244117;23;20428;-68
2022/03/05 00:30:58;;;;;;;1.30;1.23;;;0.20;98.00;;;;;;6244700;23;20428;-68
2022/03/05 00:33:25;;;;;;;1.40;1.33;;;0.20;98.00;;;;;;6244517;23;20899;-67
2022/03/05 00:35:52;;;;;;;1.83;1.60;;;0.30;98.00;;;;;;6244885;23;20411;-68
2022/03/05 00:38:21;;;;;;;1.47;1.43;;;0.30;98.00;;;;;;6244667;23;20710;-68
2022/03/05 00:40:48;;;;;;;1.30;1.20;;;0.20;98.00;;;;;;6244831;23;20939;-68
2022/03/05 00:43:15;;;;;;;1.30;1.10;;;0.00;98.00;;;;;;6244813;23;20731;-68
2022/03/05 00:45:42;;;;;;;1.60;1.30;;;-0.10;98.00;;;;;;6244769;23;20404;-68
2022/03/05 00:48:10;;;;;;;1.33;1.27;;;0.00;98.00;;;;;;6244648;23;20502;-68
2022/03/05 00:50:44;;;;;;;1.20;1.10;;;0.00;98.00;;;;;;6244938;23;20763;-68
2022/03/05 00:53:12;;;;;;;1.93;1.57;;;-0.10;98.00;;;;;;6244795;23;20405;-68
2022/03/05 00:55:40;;;;;;;1.50;1.47;;;-0.30;98.00;;;;;;6244892;23;20781;-68
2022/03/05 00:58:07;;;;;;;2.13;2.03;;;-0.30;98.00;;;;;;6244477;23;20859;-68
2022/03/05 01:00:35;;;;;;;1.30;1.30;;;-0.40;98.00;;;;;;6244945;23;20896;-68
2022/03/05 01:03:02;;;;;;;2.53;1.60;;;-0.50;98.00;;;;;;6244897;23;20846;-68
2022/03/05 01:05:30;;;;;;;2.07;1.53;;;-0.50;98.00;;;;;;6244850;23;20397;-69
2022/03/05 01:07:57;;;;;;;1.17;1.10;;;-0.60;98.00;;;;;;6243993;23;20447;-68
2022/03/05 01:10:25;;;;;;;2.17;1.70;;;-0.70;98.00;;;;;;6244752;23;20745;-69
2022/03/05 01:12:52;;;;;;;2.13;1.60;;;-0.70;98.00;;;;;;6244781;23;20405;-68
2022/03/05 01:15:19;;;;;;;1.40;1.30;;;-0.70;98.00;;;;;;6244488;23;20917;-69
2022/03/05 01:17:48;;;;;;;1.50;1.37;;;-0.70;98.00;;;;;;6244933;23;20400;-68
2022/03/05 01:20:15;;;;;;;2.17;1.73;;;-0.50;98.00;;;;;;6244100;23;20409;-69
2022/03/05 01:22:43;;;;;;;2.70;1.40;;;-0.30;98.00;;;;;;6244670;23;20416;-68
2022/03/05 01:25:10;;;;;;;2.70;1.93;;;-0.30;98.00;;;;;;6217531;23;20425;-68
2022/03/05 01:27:37;;;;;;;1.77;1.57;;;-0.30;98.00;;;;;;6244352;23;20433;-68
2022/03/05 01:30:05;;;;;;;4.87;2.53;;;-0.30;98.00;;;;;;6244008;23;20424;-68
2022/03/05 01:32:38;;;;;;;1.27;1.23;;;-0.30;98.00;;;;;;6244123;23;20454;-68
2022/03/05 01:35:08;;;;;;;2.40;2.20;;;-0.30;98.00;;;;;;6244360;23;20468;-68
2022/03/05 01:37:35;;;;;;;1.77;1.43;;;-0.50;98.00;;;;;;6244178;23;20431;-69
2022/03/05 01:40:05;;;;;;;2.43;1.77;;;-0.50;98.00;;;;;;6218083;23;20404;-68
2022/03/05 01:42:33;;;;;;;1.53;1.50;;;-0.50;98.00;;;;;;6217551;23;20435;-68
2022/03/05 01:45:00;;;;;;;2.87;2.00;;;-0.40;98.00;;;;;;6244501;23;20785;-67
2022/03/05 01:47:27;;;;;;;1.43;1.33;;;-0.40;98.00;;;;;;6244412;23;20429;-68
2022/03/05 01:49:55;;;;;;;1.20;1.20;;;-0.40;98.00;;;;;;6244336;23;20444;-68
2022/03/05 01:52:23;;;;;;;2.57;1.63;;;-0.30;98.00;;;;;;6244591;23;20420;-70
2022/03/05 01:54:51;;;;;;;1.20;1.20;;;-0.60;98.00;;;;;;6244764;23;20720;-69
2022/03/05 01:57:20;;;;;;;2.07;1.70;;;-0.60;98.00;;;;;;6244136;23;20416;-67
2022/03/05 01:59:47;;;;;;;1.83;1.67;;;-0.80;98.00;;;;;;6244565;23;20858;-68
2022/03/05 02:02:15;;;;;;;1.80;1.70;;;-0.70;98.00;;;;;;6244379;23;20463;-70
2022/03/05 02:04:42;;;;;;;1.73;1.63;;;-0.70;98.00;;;;;;6245071;23;20402;-68
2022/03/05 02:07:10;;;;;;;1.10;1.07;;;-0.90;98.00;;;;;;6243911;23;20412;-68
2022/03/05 02:09:37;;;;;;;1.50;1.37;;;-0.90;98.00;;;;;;6244204;23;20975;-68
2022/03/05 02:12:05;;;;;;;1.73;1.63;;;-1.00;98.00;;;;;;6244235;23;20744;-69
2022/03/05 02:14:33;;;;;;;2.50;2.23;;;-1.00;98.00;;;;;;6217905;23;20401;-67
2022/03/05 02:17:02;;;;;;;1.60;1.50;;;-0.80;98.00;;;;;;6217798;23;20933;-69
2022/03/05 02:19:29;;;;;;;2.47;2.20;;;-0.90;98.00;;;;;;6243997;23;20420;-67
2022/03/05 02:22:31;;;;;;;2.50;1.67;;;-1.00;98.00;;;;;;6243931;23;20397;-67
2022/03/05 02:24:59;;;;;;;1.20;1.10;;;-1.00;98.00;;;;;;6246048;23;20874;-67
2022/03/05 02:27:30;;;;;;;1.83;1.67;;;-1.20;98.00;;;;;;6245864;23;21081;-70
2022/03/05 02:29:58;;;;;;;1.87;1.60;;;-1.30;98.00;;;;;;6245916;23;20507;-68
2022/03/05 02:32:27;;;;;;;1.27;1.23;;;-1.40;98.00;;;;;;6245586;23;20488;-68
2022/03/05 02:34:54;;;;;;;2.03;1.93;;;-1.40;98.00;;;;;;6245386;23;20921;-67
2022/03/05 02:37:23;;;;;;;3.43;1.40;;;-1.20;98.00;;;;;;6245119;23;20521;-67
2022/03/05 02:39:50;;;;;;;2.80;1.70;;;-1.40;98.00;;;;;;6244926;23;20399;-69
2022/03/05 02:42:17;;;;;;;2.97;2.03;;;-1.30;98.00;;;;;;6245852;23;20403;-68
2022/03/05 02:44:45;;;;;;;1.70;1.60;;;-1.50;98.00;;;;;;6246054;23;20751;-69
2022/03/05 02:47:12;;;;;;;1.20;1.20;;;-1.60;98.00;;;;;;6246024;23;20741;-69
2022/03/05 02:49:39;;;;;;;1.30;1.30;;;-1.60;98.00;;;;;;6245719;23;20460;-67
2022/03/05 02:52:08;;;;;;;1.20;1.20;;;-1.50;98.00;;;;;;6219221;23;20752;-68
2022/03/05 02:54:40;;;;;;;2.00;1.90;;;-1.50;98.00;;;;;;6246263;23;20409;-68
2022/03/05 02:57:08;;;;;;;1.20;1.20;;;-1.30;98.00;;;;;;6245943;23;20406;-68
2022/03/05 02:59:35;;;;;;;1.60;1.50;;;-1.30;98.00;;;;;;6246102;23;20730;-68
2022/03/05 03:02:03;;;;;;;1.77;1.77;;;-1.20;98.00;;;;;;6245475;23;20844;-69
2022/03/05 03:04:31;;;;;;;1.20;1.10;;;-1.30;98.00;;;;;;6245571;23;20399;-68
2022/03/05 03:06:58;;;;;;;3.20;2.13;;;-1.30;98.00;;;;;;6245328;23;20460;-67
2022/03/05 03:09:25;;;;;;;2.00;1.80;;;-1.30;98.00;;;;;;6218659;23;20444;-68
2022/03/05 03:11:53;;;;;;;1.20;1.10;;;-1.50;98.00;;;;;;6245618;23;20472;-68
2022/03/05 03:14:20;;;;;;;4.33;2.00;;;-1.40;98.00;;;;;;6245551;23;20416;-66
2022/03/05 03:16:47;;;;;;;5.43;2.37;;;-1.40;98.00;;;;;;6244978;23;20434;-68
2022/03/05 03:19:14;;;;;;;1.77;1.73;;;-1.40;98.00;;;;;;6218183;23;20451;-67
2022/03/05 03:21:46;;;;;;;1.53;1.43;;;-1.40;98.00;;;;;;6245633;23;20436;-67
2022/03/05 03:24:13;;;;;;;3.23;2.13;;;-1.30;98.00;;;;;;6245586;23;20427;-67
2022/03/05 03:26:40;;;;;;;1.43;1.37;;;-1.40;98.00;;;;;;6218984;23;20396;-68
2022/03/05 03:29:09;;;;;;;1.40;1.20;;;-1.50;98.00;;;;;;6245174;23;20443;-67
2022/03/05 03:31:36;;;;;;;1.57;1.20;;;-1.50;98.00;;;;;;6245399;23;20450;-68
2022/03/05 03:34:03;;;;;;;1.93;1.77;;;-1.60;98.00;;;;;;6219085;23;20448;-69
2022/03/05 03:36:32;;;;;;;7.33;3.37;;;-1.70;98.00;;;;;;6245075;23;20404;-68
2022/03/05 03:39:00;;;;;;;2.20;2.00;;;-1.70;98.00;;;;;;6245542;23;20454;-68
2022/03/05 03:41:27;;;;;;;3.00;2.53;;;-1.80;98.00;;;;;;6218608;23;20395;-67
2022/03/05 03:43:54;;;;;;;1.30;1.30;;;-1.60;98.00;;;;;;6219321;23;20401;-69
2022/03/05 03:46:23;;;;;;;1.37;1.33;;;-1.70;98.00;;;;;;6245255;23;20408;-69
2022/03/05 03:48:50;;;;;;;3.00;2.10;;;-1.70;98.00;;;;;;6245927;23;20802;-68
2022/03/05 03:51:17;;;;;;;1.17;1.10;;;-1.70;98.00;;;;;;6245364;23;20419;-68
2022/03/05 03:53:44;;;;;;;1.47;1.43;;;-1.60;98.00;;;;;;6245432;23;20423;-68
2022/03/05 03:56:11;;;;;;;1.93;1.83;;;-1.50;98.00;;;;;;6218333;23;20431;-67
2022/03/05 03:58:39;;;;;;;1.20;1.10;;;-1.60;98.00;;;;;;6245122;23;20435;-68
2022/03/05 04:01:06;;;;;;;1.70;1.67;;;-1.60;98.00;;;;;;6245112;23;20396;-67
2022/03/05 04:03:35;;;;;;;2.60;2.23;;;-1.70;98.00;;;;;;6218757;23;20462;-68
2022/03/05 04:06:02;;;;;;;1.50;1.47;;;-1.80;98.00;;;;;;6245265;23;20458;-69
2022/03/05 04:08:43;;;;;;;1.13;1.00;;;-1.90;98.00;;;;;;6245043;23;20483;-68
2022/03/05 04:11:10;;;;;;;2.33;1.30;;;-1.80;98.00;;;;;;6245216;23;20423;-67
2022/03/05 04:13:37;;;;;;;1.20;1.00;;;-1.90;98.00;;;;;;6244826;23;20397;-68
2022/03/05 04:16:05;;;;;;;1.40;1.40;;;-2.00;98.00;;;;;;6244489;23;20398;-70
2022/03/05 04:18:34;;;;;;;1.60;1.30;;;-2.10;98.00;;;;;;6244704;23;20968;-68
2022/03/05 04:21:01;;;;;;;1.83;1.63;;;-2.10;98.00;;;;;;6245115;23;20219;-68
2022/03/05 04:23:28;;;;;;;1.20;1.10;;;-2.10;98.00;;;;;;6244474;23;20175;-68
2022/03/05 04:25:56;;;;;;;1.57;1.57;;;-2.20;98.00;;;;;;6244708;23;20401;-68
2022/03/05 04:28:23;;;;;;;1.40;1.27;;;-2.20;98.00;;;;;;6244548;23;20477;-69
2022/03/05 04:30:50;;;;;;;1.83;1.57;;;-2.10;98.00;;;;;;6244644;23;20427;-68
2022/03/05 04:33:17;;;;;;;1.42;1.38;;;-2.10;98.00;;;;;;6245171;23;20421;-68
2022/03/05 04:35:45;;;;;;;1.20;1.10;;;-2.20;98.00;;;;;;6245082;23;20494;-68
2022/03/05 04:38:12;;;;;;;1.43;1.37;;;-2.30;98.00;;;;;;6244754;23;20855;-67
2022/03/05 04:40:39;;;;;;;1.40;1.30;;;-2.30;98.00;;;;;;6245467;23;20398;-68
2022/03/05 04:43:07;;;;;;;1.67;1.57;;;-2.40;98.00;;;;;;6218522;23;20873;-68
2022/03/05 04:45:34;;;;;;;2.30;2.13;;;-2.30;98.00;;;;;;6244158;23;20405;-67
2022/03/05 04:48:01;;;;;;;1.20;1.10;;;-2.50;98.00;;;;;;6218442;23;20458;-67
2022/03/05 04:50:28;;;;;;;1.20;1.13;;;-2.60;98.00;;;;;;6244423;23;20172;-68
2022/03/05 04:52:59;;;;;;;2.53;2.33;;;-2.60;98.00;;;;;;6217822;23;20421;-68
2022/03/05 04:55:27;;;;;;;4.57;3.05;;;-2.40;98.00;;;;;;6244518;23;20410;-67
2022/03/05 04:57:58;;;;;;;1.70;1.60;;;-2.40;98.00;;;;;;6244511;23;20211;-68
2022/03/05 05:00:25;;;;;;;1.37;1.30;;;-2.50;98.00;;;;;;6218586;23;20452;-68
2022/03/05 05:02:52;;;;;;;1.30;1.30;;;-2.50;98.00;;;;;;6244681;23;20455;-67
2022/03/05 05:05:19;;;;;;;1.35;1.27;;;-2.50;98.00;;;;;;6244386;23;20215;-68
2022/03/05 05:07:46;;;;;;;1.30;1.13;;;-2.40;98.00;;;;;;6244673;23;20462;-69
2022/03/05 05:10:15;;;;;;;1.40;1.40;;;-2.40;98.00;;;;;;6218008;23;20190;-68
2022/03/05 05:12:42;;;;;;;1.37;1.33;;;-2.40;98.00;;;;;;6244534;23;20709;-68
2022/03/05 05:15:10;;;;;;;2.67;1.67;;;-2.30;98.00;;;;;;6244505;23;20414;-68
2022/03/05 05:17:37;;;;;;;3.10;2.60;;;-2.30;98.00;;;;;;6244441;23;20170;-68
2022/03/05 05:20:06;;;;;;;2.30;2.13;;;-2.50;98.00;;;;;;6244786;23;20443;-69
2022/03/05 05:22:33;;;;;;;1.30;1.25;;;-2.60;98.00;;;;;;6244397;23;20179;-68
2022/03/05 05:25:00;;;;;;;2.08;1.63;;;-2.60;98.00;;;;;;6244856;23;20227;-68
2022/03/05 05:27:29;;;;;;;1.60;1.50;;;-2.50;98.00;;;;;;6244937;23;20160;-68
2022/03/05 05:29:56;;;;;;;4.07;1.92;;;-2.40;98.00;;;;;;6244514;23;20500;-68
2022/03/05 05:32:23;;;;;;;2.88;1.40;;;-2.50;98.00;;;;;;6245014;23;20191;-69
2022/03/05 05:34:50;;;;;;;2.38;2.17;;;-2.60;98.00;;;;;;6245072;23;20159;-68
2022/03/05 05:37:17;;;;;;;1.70;1.60;;;-2.70;98.00;;;;;;6244664;23;20163;-68
2022/03/05 05:39:45;;;;;;;1.15;1.10;;;-2.70;98.00;;;;;;6244238;23;20165;-68
2022/03/05 05:42:13;;;;;;;2.78;2.08;;;-2.70;98.00;;;;;;6244330;23;20518;-67
2022/03/05 05:44:41;;;;;;;2.17;1.42;;;-2.50;98.00;;;;;;6244569;23;20194;-68
2022/03/05 05:47:11;;;;;;;2.47;2.05;;;-2.60;98.00;;;;;;6244104;23;20205;-67
2022/03/05 05:49:38;;;;;;;1.40;1.40;;;-2.60;98.00;;;;;;6217400;23;20201;-69
2022/03/05 05:52:06;;;;;;;1.90;1.88;;;-2.60;98.00;;;;;;6244313;23;20860;-70
2022/03/05 05:54:33;;;;;;;1.30;1.20;;;-2.70;98.00;;;;;;6244849;23;20164;-70
2022/03/05 05:57:00;;;;;;;1.20;1.10;;;-2.70;98.00;;;;;;6217443;23;20225;-71
2022/03/05 05:59:27;;;;;;;1.95;1.48;;;-2.60;98.00;;;;;;6246580;23;20173;-71
2022/03/05 06:01:56;;;;;;;6.60;1.60;;;-2.60;98.00;;;;;;6246613;23;20163;-71
2022/03/05 06:04:23;;;;;;;2.70;2.50;;;-2.70;98.00;;;;;;6246215;23;20444;-70
2022/03/05 06:06:50;;;;;;;1.20;1.15;;;-2.80;98.00;;;;;;6245824;23;20602;-70
2022/03/05 06:09:17;;;;;;;4.25;3.78;;;-2.80;98.00;;;;;;6219519;23;20211;-70
2022/03/05 06:11:44;;;;;;;1.70;1.60;;;-2.80;98.00;;;;;;6170105;23;20180;-72
2022/03/05 06:14:12;;;;;;;1.65;1.48;;;-2.80;98.00;;;;;;6246530;23;20161;-71
2022/03/05 06:16:42;;;;;;;1.73;1.67;;;-2.80;98.00;;;;;;6246140;23;20175;-71
2022/03/05 06:19:15;;;;;;;1.30;1.30;;;-2.80;98.00;;;;;;6246593;23;20156;-70
2022/03/05 06:21:42;;;;;;;2.05;1.73;;;-2.80;98.00;;;;;;6246765;23;20171;-70
2022/03/05 06:24:09;;;;;;;3.35;1.90;;;-2.70;98.00;;;;;;6246028;23;20200;-70
2022/03/05 06:26:36;;;;;;;1.30;1.25;;;-2.60;98.00;;;;;;6246432;23;20526;-69
2022/03/05 06:29:05;;;;;;;3.15;2.00;;;-2.50;98.00;;;;;;6245379;23;20276;-70
2022/03/05 06:31:32;;;;;;;2.65;2.05;;;-2.40;98.00;;;;;;6246175;23;20618;-70
2022/03/05 06:33:59;;;;;;;3.15;2.38;;;-2.50;98.00;;;;;;6245985;23;20481;-71
2022/03/05 06:36:29;;;;;;;1.75;1.65;;;-2.60;98.00;;;;;;6245722;23;20164;-70
2022/03/05 06:38:56;;;;;;;1.58;1.58;;;-2.70;98.00;;;;;;6245749;23;20176;-70
2022/03/05 06:41:25;;;;;;;3.27;2.40;;;-2.80;98.00;;;;;;6245629;23;20176;-70
2022/03/05 06:43:52;;;;;;;1.40;1.30;;;-2.70;98.00;;;;;;6218780;23;20818;-70
2022/03/05 06:46:19;;;;;;;1.87;1.47;;;-2.70;98.00;;;;;;6245700;23;20606;-69
2022/03/05 06:48:47;;;;;;;4.33;3.13;;;-2.70;98.00;;;;;;6245658;23;20403;-70
2022/03/05 06:51:14;;;;;;;2.83;1.75;;;-2.70;98.00;;;;;;6245714;23;20404;-68
2022/03/05 06:53:43;;;;;;;1.67;1.53;;;-2.60;98.00;;;;;;6245945;23;20177;-68
2022/03/05 06:56:10;;;;;;;1.40;1.20;;;-2.60;98.00;;;;;;6246096;23;20906;-67
2022/03/05 06:58:37;;;;;;;1.30;1.13;;;-2.50;98.00;;;;;;6246091;23;20728;-69
2022/03/05 07:01:04;;;;;;;1.63;1.50;;;-2.50;98.00;;;;;;6245742;23;20425;-68
2022/03/05 07:03:32;;;;;;;1.50;1.43;;;-2.40;98.00;;;;;;6246133;23;20716;-69
2022/03/05 07:05:59;;;;;;;1.20;1.20;;;-2.30;98.00;;;;;;6219191;23;20403;-67
2022/03/05 07:08:26;;;;;;;1.43;1.40;;;-2.20;98.00;;;;;;6245664;23;20164;-69
2022/03/05 07:10:55;;;;;;;1.20;1.20;;;-2.20;98.00;;;;;;6245810;23;20477;-68
2022/03/05 07:13:22;;;;;;;1.30;1.30;;;-2.10;98.00;;;;;;6245908;23;20171;-68
2022/03/05 07:15:49;;;;;;;2.55;2.10;;;-2.00;98.00;;;;;;6245813;23;20163;-67
2022/03/05 07:18:16;;;;;;;1.30;1.30;;;-1.80;98.00;;;;;;6245292;23;20164;-69
2022/03/05 07:20:43;;;;;;;3.13;1.83;;;-1.60;98.00;;;;;;6245645;23;20774;-67
2022/03/05 07:23:10;;;;;;;1.27;1.23;;;-1.60;98.00;;;;;;6245232;23;20854;-68
2022/03/05 07:25:39;;;;;;;1.33;1.27;;;-1.60;98.00;;;;;;6218843;23;20428;-68
2022/03/05 07:28:09;;;;;;;1.73;1.60;;;-1.50;98.00;;;;;;6245670;23;20717;-71
2022/03/05 07:30:37;;;;;;;1.97;1.87;;;-1.40;98.00;;;;;;6244983;23;20451;-69
2022/03/05 07:33:04;;;;;;;1.30;1.27;;;-1.40;98.00;;;;;;6245189;23;20420;-68
2022/03/05 07:35:32;;;;;;;4.10;1.43;;;-1.30;98.00;;;;;;6245387;23;20404;-68
2022/03/05 07:37:59;;;;;;;1.67;1.60;;;-1.20;98.00;;;;;;6244685;23;20400;-69
2022/03/05 07:40:27;;;;;;;7.33;1.83;;;-1.10;98.00;;;;;;6244626;23;20403;-68
2022/03/05 07:42:54;;;;;;;2.40;2.20;;;-1.10;98.00;;;;;;6244497;23;20513;-68
2022/03/05 07:45:22;;;;;;;1.53;1.50;;;-1.00;98.00;;;;;;6244998;23;20440;-68
2022/03/05 07:47:50;;;;;;;2.00;1.60;;;-0.90;98.00;;;;;;6245021;23;20429;-69
2022/03/05 07:50:18;;;;;;;1.60;1.53;;;-0.90;98.00;;;;;;6218471;23;20786;-69
2022/03/05 07:52:45;;;;;;;1.27;1.23;;;-0.70;98.00;;;;;;6245543;23;20697;-68
2022/03/05 07:55:13;;;;;;;1.13;1.00;;;-0.60;98.00;;;;;;6245431;23;20890;-68
2022/03/05 07:57:40;;;;;;;3.17;1.90;;;-0.40;98.00;;;;;;6245367;23;20435;-67
2022/03/05 08:00:08;;;;;;;2.70;1.93;;;-0.20;98.00;;;;;;6245134;23;20856;-69
2022/03/05 08:02:36;;;;;;;4.33;2.10;;;-0.10;98.00;;;;;;6245437;23;20736;-68
2022/03/05 08:05:05;;;;;;;8.90;5.10;;;0.10;98.00;;;;;;6245080;23;20738;-67
2022/03/05 08:07:32;;;;;;;1.67;1.63;;;0.20;98.00;;;;;;6244546;23;20424;-69
2022/03/05 08:09:59;;;;;;;1.87;1.77;;;0.40;98.00;;;;;;6245039;23;20804;-70
2022/03/05 08:12:27;;;;;;;1.20;1.20;;;0.60;98.00;;;;;;6245048;23;20453;-71
2022/03/05 08:14:54;;;;;;;1.97;1.87;;;0.80;98.00;;;;;;6245290;23;20452;-70
2022/03/05 08:17:23;;;;;;;1.43;1.37;;;1.00;98.00;;;;;;6244449;23;20950;-71
2022/03/05 08:19:51;;;;;;;1.27;1.23;;;1.20;98.00;;;;;;6244393;23;20737;-69
2022/03/05 08:22:18;;;;;;;1.10;1.00;;;1.30;98.00;;;;;;6244524;23;20873;-69
2022/03/05 08:24:45;;;;;;;1.20;1.07;;;1.40;98.00;;;;;;6244964;23;20416;-68
2022/03/05 08:27:12;;;;;;;1.80;1.27;;;1.60;98.00;;;;;;6244980;23;20795;-70
2022/03/05 08:29:42;;;;;;;1.43;1.37;;;1.80;98.00;;;;;;6244594;23;20915;-69
2022/03/05 08:32:09;;;;;;;2.60;1.87;;;1.90;98.00;;;;;;6244860;23;20405;-68
2022/03/05 08:34:36;;;;;;;3.20;2.20;;;1.90;98.00;;;;;;6244899;23;20463;-69
2022/03/05 08:37:05;;;;;;;2.27;2.00;;;2.10;98.00;;;;;;6245041;23;20459;-67
2022/03/05 08:39:32;;;;;;;2.40;1.53;;;2.20;98.00;;;;;;6244829;23;20401;-68
2022/03/05 08:41:59;;;;;;;2.23;1.77;;;2.30;98.00;;;;;;6244865;23;20398;-69
2022/03/05 08:44:27;;;;;;;1.67;1.40;;;2.40;98.00;;;;;;6243105;23;20489;-70
2022/03/05 08:46:54;;;;;;;1.77;1.37;;;2.60;98.00;;;;;;6242855;23;20418;-70
2022/03/05 08:49:22;;;;;;;2.30;2.00;;;2.70;98.00;;;;;;6216052;23;20409;-67
2022/03/05 08:51:49;;;;;;;1.30;1.10;;;2.80;98.00;;;;;;6243538;23;20412;-69
2022/03/05 08:54:17;;;;;;;2.73;2.10;;;3.00;98.00;;;;;;6244939;23;20894;-67
2022/03/05 08:56:45;;;;;;;2.17;1.83;;;3.00;98.00;;;;;;6244831;23;20485;-70
2022/03/05 08:59:12;;;;;;;3.10;1.90;;;3.20;98.00;;;;;;6244788;23;21113;-67
2022/03/05 09:01:39;;;;;;;1.53;1.53;;;3.40;98.00;;;;;;6244869;23;20802;-68
2022/03/05 09:04:08;;;;;;;1.50;1.30;;;3.60;98.00;;;;;;6244418;23;20480;-68
2022/03/05 09:06:36;;;;;;;1.40;1.20;;;3.80;98.00;;;;;;6244150;23;20419;-68
2022/03/05 09:09:03;;;;;;;2.73;1.83;;;3.90;98.00;;;;;;6244536;23;20430;-69
2022/03/05 09:11:34;;;;;;;1.60;1.30;;;4.10;98.00;;;;;;6244168;23;20426;-67
2022/03/05 09:14:02;;;;;;;2.03;1.90;;;4.30;97.90;;;;;;6245015;23;20395;-67
2022/03/05 09:16:29;;;;;;;2.20;1.90;;;4.50;96.30;;;;;;6244384;23;20466;-67
2022/03/05 09:18:56;;;;;;;1.50;1.40;;;4.60;95.70;;;;;;6244708;23;20408;-68
2022/03/05 09:21:23;;;;;;;2.03;1.90;;;4.80;95.40;;;;;;6244633;23;20400;-68
2022/03/05 09:23:50;;;;;;;3.23;2.30;;;4.90;95.00;;;;;;6244660;23;20428;-67
2022/03/05 09:26:17;;;;;;;2.73;2.00;;;5.10;94.90;;;;;;6243896;23;20447;-67
2022/03/05 09:28:46;;;;;;;1.30;1.23;;;5.10;93.30;;;;;;6244653;23;20441;-68
2022/03/05 09:31:13;;;;;;;1.20;1.10;;;5.30;93.30;;;;;;6244537;23;20454;-69
2022/03/05 09:33:40;;;;;;;3.27;2.60;;;5.50;92.00;;;;;;6246725;23;20447;-68
2022/03/05 09:36:09;;;;;;;1.67;1.50;;;5.70;91.20;;;;;;6219495;23;20481;-68
2022/03/05 09:38:36;;;;;;;1.40;1.20;;;5.90;91.30;;;;;;6246527;23;20440;-68
2022/03/05 09:41:04;;;;;;;2.47;2.27;;;6.00;90.00;;;;;;6246870;23;20396;-69
2022/03/05 09:43:31;;;;;;;3.83;2.17;;;6.10;88.60;;;;;;6246005;23;20461;-67
2022/03/05 09:46:00;;;;;;;2.00;1.50;;;6.20;89.80;;;;;;6246231;23;20398;-67
2022/03/05 09:48:28;;;;;;;3.93;1.63;;;6.30;89.20;;;;;;6219368;23;20458;-68
2022/03/05 09:50:55;;;;;;;1.83;1.60;;;6.30;88.40;;;;;;6247098;23;20482;-68
2022/03/05 09:53:27;;;;;;;3.73;1.57;;;6.40;87.10;;;;;;6246298;23;21096;-67
2022/03/05 09:55:54;;;;;;;1.57;1.47;;;6.50;87.40;;;;;;6246564;23;20402;-68
2022/03/05 09:58:21;;;;;;;1.83;1.70;;;6.90;87.30;;;;;;6246373;23;20458;-68
2022/03/05 10:00:49;;;;;;;1.90;1.80;;;7.10;85.30;;;;;;6246141;23;20435;-67
2022/03/05 10:03:18;;;;;;;1.87;1.80;;;7.50;85.50;;;;;;6246270;23;20428;-67
2022/03/05 10:05:55;;;;;;;1.20;1.07;;;7.80;87.80;;;;;;6246132;23;20402;-69
2022/03/05 10:08:21;;;;;;;1.93;1.43;;;8.40;83.80;;;;;;6246274;23;20406;-67
2022/03/05 10:10:50;;;;;;;1.60;1.30;;;8.60;81.00;;;;;;6246348;23;20447;-67
2022/03/05 10:13:20;;;;;;;1.40;1.30;;;8.70;79.80;;;;;;6245731;23;20888;-67
2022/03/05 10:15:48;;;;;;;1.47;1.17;;;8.80;79.00;;;;;;6245860;23;20401;-69
2022/03/05 10:18:15;;;;;;;1.93;1.67;;;8.80;78.50;;;;;;6245785;23;20408;-68
2022/03/05 10:20:50;;;;;;;2.60;2.03;;;8.40;78.50;;;;;;6246050;23;20404;-68
2022/03/05 10:23:19;;;;;;;30.57;1.70;;;8.00;79.40;;;;;;6246068;23;20440;-68
2022/03/05 10:25:48;;;;;;;3.93;1.93;;;7.50;80.60;;;;;;6246026;23;20397;-67
2022/03/05 10:28:17;;;;;;;1.40;1.30;;;7.20;82.10;;;;;;6246295;23;20401;-68
2022/03/05 10:30:45;;;;;;;1.50;1.40;;;7.40;79.70;;;;;;6245771;23;20442;-69
2022/03/05 10:33:25;;;;;;;2.40;1.77;;;7.90;80.20;;;;;;6245883;23;20415;-67
2022/03/05 10:35:57;;;;;;;1.83;1.40;;;8.40;78.10;;;;;;6246205;23;20471;-68
2022/03/05 10:38:28;;;;;;;2.20;1.73;;;8.80;75.40;;;;;;6246278;23;20490;-67
2022/03/05 10:40:56;;;;;;;1.57;1.30;;;9.20;73.50;;;;;;6246332;23;20402;-69
2022/03/05 10:43:25;;;;;;;1.73;1.40;;;9.40;71.50;;;;;;6245622;23;20397;-68
2022/03/05 10:45:54;;;;;;;3.37;1.80;;;9.40;71.10;;;;;;6245561;23;20399;-68
2022/03/05 10:48:26;;;;;;;2.00;1.77;;;9.50;71.60;;;;;;6245849;23;20425;-68
2022/03/05 10:50:59;;;;;;;1.60;1.43;;;9.70;71.10;;;;;;6245378;23;20455;-69
2022/03/05 10:53:37;;;;;;;3.37;2.00;;;9.90;71.10;;;;;;6255197;23;20401;-68
2022/03/05 10:56:24;;;;;;;1.40;1.30;;;10.00;70.80;;;;;;6245647;23;20403;-70
2022/03/05 10:59:08;;;;;;;1.50;1.40;;;10.10;70.80;;;;;;6245682;23;20402;-68
2022/03/05 11:01:38;;;;;;;2.17;1.60;;;10.30;70.60;;;;;;6245504;23;20396;-68
2022/03/05 11:04:07;;;;;;;2.13;1.43;;;10.60;70.60;;;;;;6245504;23;20409;-69
2022/03/05 11:06:39;;;;;;;1.40;1.30;;;10.70;69.30;;;;;;6245271;23;20405;-68
2022/03/05 11:09:06;;;;;;;1.50;1.40;;;10.80;68.00;;;;;;6245680;23;20864;-69
2022/03/05 11:11:37;;;;;;;1.67;1.53;;;10.90;67.90;;;;;;6245662;23;20429;-69
2022/03/05 11:14:05;;;;;;;2.33;1.23;;;11.00;67.00;;;;;;6245889;23;20399;-69
2022/03/05 11:16:33;;;;;;;1.77;1.60;;;11.10;66.50;;;;;;6245736;23;20409;-68
2022/03/05 11:19:01;;;;;;;1.30;1.03;;;11.10;66.60;;;;;;6245636;23;20428;-67
2022/03/05 11:21:29;;;;;;;1.53;1.40;;;11.20;65.90;;;;;;6245765;23;20401;-68
2022/03/05 11:23:58;;;;;;;1.40;1.20;;;11.40;65.40;;;;;;6245935;23;20405;-68
2022/03/05 11:26:26;;;;;;;1.80;1.63;;;11.70;66.30;;;;;;6245453;23;20402;-68
2022/03/05 11:28:53;;;;;;;1.20;1.10;;;11.80;66.00;;;;;;6245596;23;20394;-68
2022/03/05 11:31:21;;;;;;;1.53;1.37;;;11.90;65.00;;;;;;6245145;23;20441;-68
2022/03/05 11:33:49;;;;;;;3.10;1.60;;;12.00;64.30;;;;;;6245664;23;20480;-68
2022/03/05 11:36:29;;;;;;;2.17;1.50;;;12.00;64.30;;;;;;6245618;23;20456;-68
2022/03/05 11:39:13;;;;;;;1.50;1.13;;;12.20;63.40;;;;;;6245094;23;20401;-68
2022/03/05 11:42:05;;;;;;;2.77;1.73;;;12.40;62.70;;;;;;6244908;23;20439;-69
2022/03/05 11:44:41;;;;;;;2.43;1.90;;;12.60;62.60;;;;;;6216127;23;20460;-68
2022/03/05 11:47:28;;;;;;;3.53;1.67;;;12.70;62.20;;;;;;6244432;23;20393;-68
2022/03/05 11:50:11;;;;;;;1.20;1.10;;;12.20;61.50;;;;;;6244638;23;20409;-68
2022/03/05 11:53:04;;;;;;;1.97;1.20;;;11.80;62.30;;;;;;6245452;23;20784;-69
2022/03/05 11:55:35;;;;;;;1.70;1.40;;;11.90;63.20;;;;;;6248210;23;20783;-68
2022/03/05 11:58:34;;;;;;;1.60;1.57;;;11.90;63.30;;;;;;6245245;23;20400;-69
2022/03/05 12:01:31;;;;;;;3.00;1.77;;;12.20;62.80;;;;;;6122427;23;20481;-69
2022/03/05 12:04:03;;;;;;;1.87;1.70;;;12.40;62.60;;;;;;6238484;23;20424;-69
2022/03/05 12:06:42;;;;;;;2.40;1.47;;;12.70;61.70;;;;;;6219641;23;20399;-69
2022/03/05 12:09:39;;;;;;;1.50;1.40;;;12.80;61.40;;;;;;6245416;23;20431;-69
2022/03/05 12:12:10;;;;;;;3.43;2.13;;;12.30;61.60;;;;;;6245026;23;20548;-70
2022/03/05 12:15:12;;;;;;;2.50;1.63;;;12.40;61.50;;;;;;6245427;23;20444;-69
2022/03/05 12:17:46;;;;;;;1.43;1.20;;;12.50;61.60;;;;;;6245293;23;20402;-69
2022/03/05 12:20:15;;;;;;;1.90;1.60;;;13.00;62.50;;;;;;6245578;23;20401;-69
2022/03/05 12:22:50;;;;;;;3.10;2.10;;;13.20;61.30;;;;;;6218781;23;20443;-69
2022/03/05 12:25:18;;;;;;;1.30;1.30;;;13.30;60.50;;;;;;6245583;23;20402;-69
2022/03/05 12:27:50;;;;;;;1.50;1.40;;;13.30;60.30;;;;;;6244919;23;20489;-69
2022/03/05 12:30:18;;;;;;;1.60;1.43;;;12.70;60.40;;;;;;6244856;23;20900;-70
2022/03/05 12:32:47;;;;;;;1.83;1.73;;;12.50;61.70;;;;;;6245045;23;20424;-69
2022/03/05 12:35:18;;;;;;;1.20;1.10;;;12.80;62.00;;;;;;6244989;23;20409;-68
2022/03/05 12:37:46;;;;;;;2.07;1.43;;;13.00;61.60;;;;;;6243681;23;20412;-68
2022/03/05 12:40:14;;;;;;;1.20;1.00;;;13.10;61.60;;;;;;6244720;23;20439;-68
2022/03/05 12:42:44;;;;;;;1.50;1.27;;;13.40;62.10;;;;;;6244556;23;20766;-68
2022/03/05 12:45:19;;;;;;;1.90;1.40;;;13.90;60.00;;;;;;6244846;23;20780;-70
2022/03/05 12:47:46;;;;;;;1.67;1.57;;;14.30;60.10;;;;;;6242961;23;20773;-68
2022/03/05 12:50:21;;;;;;;2.30;1.50;;;14.20;59.50;;;;;;6244798;23;20453;-69
2022/03/05 12:52:56;;;;;;;2.17;1.90;;;14.20;59.00;;;;;;6243530;23;20467;-69
2022/03/05 12:55:23;;;;;;;3.13;1.83;;;14.30;59.70;;;;;;6243947;23;20425;-69
2022/03/05 12:57:51;;;;;;;1.47;1.40;;;14.30;59.10;;;;;;6217765;23;20402;-69
2022/03/05 13:00:19;;;;;;;1.57;1.33;;;14.50;58.00;;;;;;6243392;23;20460;-69